Penicuik, United Kingdom

10:41 AM GMT on December 07, 2016 (GMT +0000)
IMIDLOTH8 | | Change Station

Elev 719 ft 55.83 °N, 3.24 °W | Updated 587 days ago

Partly Cloudy
Partly Cloudy
57 °F
Feels Like 57 °F
N
22
Wind Variable Wind from SW
Gusts 29 mph

Today
High -- | Low -- °F
--% Chance of Precip.
Yesterday
High -- | Low -- °F
Precip. -- in
Pressure 29.92 in
Visibility 6.2 miles
Clouds Few 900 ft
Scattered Clouds 1200 ft
Dew Point 52 °F
Humidity 85%
Rainfall in
Snow Depth Not available.
8:28 AM 3:40 PM
Waxing Crescent, 51% visible
METAR EGPH 071020Z 23019KT 9999 FEW009 SCT012 13/11 Q1013
Pressure 29.92 in
Visibility 6.2 miles
Clouds Few 900 ft
Scattered Clouds 1200 ft
Dew Point 52 °F
Humidity 85%
Rainfall in
Snow Depth Not available.
8:28 AM 3:40 PM
Waxing Crescent, 51% visible
METAR EGPH 071020Z 23019KT 9999 FEW009 SCT012 13/11 Q1013

10-Day Weather Forecast

×

Almanac

Astronomy

Dec. 07, 2016 Rise Set
Actual Time
Civil Twilight
Nautical Twilight
Astronomical Twilight
Moon
Length of Visible Light
Length of Day
Tomorrow will be .
, % of the Moon is Illuminated

Today's Extremes

Country Highs Country Lows

Community

WunderPhotos

Upload Photos

1,956,111 photos uploaded!

WunderBlog® & News

Nearby

Air Quality

  Air Quality AQ Index Pollutant
Not available.

Snow Depth

Station Depth Elevation

Earthquake Activity

City Distance Mag. Time & Date
Minimum magnitude displayed is 2.5.

Coastal Water Temperatures

Place Temperature

Stations

Nearby Weather Stations

Station Location Temp. Windchill Dew Point Humidity Wind Precip. Elev Updated Type